sensor_id;sensor_type;location;lat;lon;timestamp;temperature;humidity
33803;DHT22;20110;53.120;5.786;2023-12-07T00:02:09;4.00;99.90
33803;DHT22;20110;53.120;5.786;2023-12-07T00:04:37;3.80;99.90
33803;DHT22;20110;53.120;5.786;2023-12-07T00:07:03;3.70;99.90
33803;DHT22;20110;53.120;5.786;2023-12-07T00:09:29;3.70;99.90
33803;DHT22;20110;53.120;5.786;2023-12-07T00:11:54;4.00;99.90
33803;DHT22;20110;53.120;5.786;2023-12-07T00:14:21;5.30;99.90
33803;DHT22;20110;53.120;5.786;2023-12-07T00:16:46;4.80;99.90
33803;DHT22;20110;53.120;5.786;2023-12-07T00:19:12;4.50;99.90
33803;DHT22;20110;53.120;5.786;2023-12-07T00:21:38;3.70;99.90
33803;DHT22;20110;53.120;5.786;2023-12-07T00:24:04;3.40;99.90
33803;DHT22;20110;53.120;5.786;2023-12-07T00:26:30;3.20;99.90
33803;DHT22;20110;53.120;5.786;2023-12-07T00:28:55;4.00;99.90
33803;DHT22;20110;53.120;5.786;2023-12-07T00:31:21;3.80;99.90
33803;DHT22;20110;53.120;5.786;2023-12-07T00:33:47;4.10;99.90
33803;DHT22;20110;53.120;5.786;2023-12-07T00:36:13;4.20;99.90
33803;DHT22;20110;53.120;5.786;2023-12-07T00:38:39;4.10;99.90
33803;DHT22;20110;53.120;5.786;2023-12-07T00:41:04;4.20;99.90
33803;DHT22;20110;53.120;5.786;2023-12-07T00:43:30;4.30;99.90
33803;DHT22;20110;53.120;5.786;2023-12-07T00:45:56;4.00;99.90
33803;DHT22;20110;53.120;5.786;2023-12-07T00:48:23;4.60;99.90
33803;DHT22;20110;53.120;5.786;2023-12-07T00:50:48;4.20;99.90
33803;DHT22;20110;53.120;5.786;2023-12-07T00:53:14;4.70;99.90
33803;DHT22;20110;53.120;5.786;2023-12-07T00:55:40;3.60;99.90
33803;DHT22;20110;53.120;5.786;2023-12-07T00:58:05;3.80;99.90
33803;DHT22;20110;53.120;5.786;2023-12-07T01:00:31;5.10;99.90
33803;DHT22;20110;53.120;5.786;2023-12-07T01:02:57;4.60;99.90
33803;DHT22;20110;53.120;5.786;2023-12-07T01:05:22;4.00;99.90
33803;DHT22;20110;53.120;5.786;2023-12-07T01:07:48;3.50;99.90
33803;DHT22;20110;53.120;5.786;2023-12-07T01:10:14;3.20;99.90
33803;DHT22;20110;53.120;5.786;2023-12-07T01:12:39;3.40;99.90
33803;DHT22;20110;53.120;5.786;2023-12-07T01:15:05;3.30;99.90
33803;DHT22;20110;53.120;5.786;2023-12-07T01:17:31;3.10;99.90
33803;DHT22;20110;53.120;5.786;2023-12-07T01:19:57;3.30;99.90
33803;DHT22;20110;53.120;5.786;2023-12-07T01:22:23;3.20;99.90
33803;DHT22;20110;53.120;5.786;2023-12-07T01:24:48;3.10;99.90
33803;DHT22;20110;53.120;5.786;2023-12-07T01:27:14;3.40;99.90
33803;DHT22;20110;53.120;5.786;2023-12-07T01:29:40;3.50;99.90
33803;DHT22;20110;53.120;5.786;2023-12-07T01:32:06;3.60;99.90
33803;DHT22;20110;53.120;5.786;2023-12-07T01:34:31;3.20;99.90
33803;DHT22;20110;53.120;5.786;2023-12-07T01:36:58;3.10;99.90
33803;DHT22;20110;53.120;5.786;2023-12-07T01:39:23;3.40;99.90
33803;DHT22;20110;53.120;5.786;2023-12-07T01:41:49;3.20;99.90
33803;DHT22;20110;53.120;5.786;2023-12-07T01:44:16;3.70;99.90
33803;DHT22;20110;53.120;5.786;2023-12-07T01:46:42;4.90;99.90
33803;DHT22;20110;53.120;5.786;2023-12-07T01:49:08;4.60;99.90
33803;DHT22;20110;53.120;5.786;2023-12-07T01:51:35;4.60;99.90
33803;DHT22;20110;53.120;5.786;2023-12-07T01:54:01;4.50;99.90
33803;DHT22;20110;53.120;5.786;2023-12-07T01:56:27;4.20;99.90
33803;DHT22;20110;53.120;5.786;2023-12-07T01:58:53;3.70;99.90
33803;DHT22;20110;53.120;5.786;2023-12-07T02:01:18;3.10;99.90
33803;DHT22;20110;53.120;5.786;2023-12-07T02:03:44;2.90;99.90
33803;DHT22;20110;53.120;5.786;2023-12-07T02:06:10;3.00;99.90
33803;DHT22;20110;53.120;5.786;2023-12-07T02:08:36;2.70;99.90
33803;DHT22;20110;53.120;5.786;2023-12-07T02:11:10;2.90;99.90
33803;DHT22;20110;53.120;5.786;2023-12-07T02:13:40;3.00;99.90
33803;DHT22;20110;53.120;5.786;2023-12-07T02:16:21;3.50;99.90
33803;DHT22;20110;53.120;5.786;2023-12-07T02:22:02;2.90;99.90
33803;DHT22;20110;53.120;5.786;2023-12-07T02:24:36;3.20;99.90
33803;DHT22;20110;53.120;5.786;2023-12-07T02:27:07;4.00;99.90
33803;DHT22;20110;53.120;5.786;2023-12-07T02:29:35;4.60;99.90
33803;DHT22;20110;53.120;5.786;2023-12-07T02:32:00;3.70;99.90
33803;DHT22;20110;53.120;5.786;2023-12-07T02:34:27;3.00;99.90
33803;DHT22;20110;53.120;5.786;2023-12-07T02:36:53;2.70;99.90
33803;DHT22;20110;53.120;5.786;2023-12-07T02:39:22;2.70;99.90
33803;DHT22;20110;53.120;5.786;2023-12-07T02:41:49;3.80;99.90
33803;DHT22;20110;53.120;5.786;2023-12-07T02:44:16;3.90;99.90
33803;DHT22;20110;53.120;5.786;2023-12-07T02:46:42;3.90;99.90
33803;DHT22;20110;53.120;5.786;2023-12-07T02:49:07;4.10;99.90
33803;DHT22;20110;53.120;5.786;2023-12-07T02:51:33;4.20;99.90
33803;DHT22;20110;53.120;5.786;2023-12-07T02:53:59;4.30;99.90
33803;DHT22;20110;53.120;5.786;2023-12-07T02:56:24;4.40;99.90
33803;DHT22;20110;53.120;5.786;2023-12-07T02:58:50;4.30;99.90
33803;DHT22;20110;53.120;5.786;2023-12-07T03:01:16;4.30;99.90
33803;DHT22;20110;53.120;5.786;2023-12-07T03:03:42;4.50;99.90
33803;DHT22;20110;53.120;5.786;2023-12-07T03:06:08;4.70;99.90
33803;DHT22;20110;53.120;5.786;2023-12-07T03:08:33;4.60;99.90
33803;DHT22;20110;53.120;5.786;2023-12-07T03:10:59;4.50;99.90
33803;DHT22;20110;53.120;5.786;2023-12-07T03:13:25;4.70;99.90
33803;DHT22;20110;53.120;5.786;2023-12-07T03:15:50;4.70;99.90
33803;DHT22;20110;53.120;5.786;2023-12-07T03:18:16;4.40;99.90
33803;DHT22;20110;53.120;5.786;2023-12-07T03:20:42;4.00;99.90
33803;DHT22;20110;53.120;5.786;2023-12-07T03:23:07;3.50;99.90
33803;DHT22;20110;53.120;5.786;2023-12-07T03:25:33;3.70;99.90
33803;DHT22;20110;53.120;5.786;2023-12-07T03:27:59;4.10;99.90
33803;DHT22;20110;53.120;5.786;2023-12-07T03:30:24;4.40;99.90
33803;DHT22;20110;53.120;5.786;2023-12-07T03:32:50;4.50;99.90
33803;DHT22;20110;53.120;5.786;2023-12-07T03:35:16;4.40;99.90
33803;DHT22;20110;53.120;5.786;2023-12-07T03:37:42;4.20;99.90
33803;DHT22;20110;53.120;5.786;2023-12-07T03:40:08;4.30;99.90
33803;DHT22;20110;53.120;5.786;2023-12-07T03:42:34;4.50;99.90
33803;DHT22;20110;53.120;5.786;2023-12-07T03:45:00;4.40;99.90
33803;DHT22;20110;53.120;5.786;2023-12-07T03:47:25;4.30;99.90
33803;DHT22;20110;53.120;5.786;2023-12-07T03:49:52;4.20;99.90
33803;DHT22;20110;53.120;5.786;2023-12-07T03:52:18;4.10;99.90
33803;DHT22;20110;53.120;5.786;2023-12-07T03:54:43;4.10;99.90
33803;DHT22;20110;53.120;5.786;2023-12-07T03:57:09;3.90;99.90
33803;DHT22;20110;53.120;5.786;2023-12-07T03:59:38;4.10;99.90
33803;DHT22;20110;53.120;5.786;2023-12-07T04:02:03;3.90;99.90
33803;DHT22;20110;53.120;5.786;2023-12-07T04:04:29;3.60;99.90
33803;DHT22;20110;53.120;5.786;2023-12-07T04:06:55;3.50;99.90
33803;DHT22;20110;53.120;5.786;2023-12-07T04:09:20;3.70;99.90
33803;DHT22;20110;53.120;5.786;2023-12-07T04:11:46;4.00;99.90
33803;DHT22;20110;53.120;5.786;2023-12-07T04:14:12;4.00;99.90
33803;DHT22;20110;53.120;5.786;2023-12-07T04:16:37;4.20;99.90
33803;DHT22;20110;53.120;5.786;2023-12-07T04:19:03;4.40;99.90
33803;DHT22;20110;53.120;5.786;2023-12-07T04:21:29;5.70;99.90
33803;DHT22;20110;53.120;5.786;2023-12-07T04:23:54;4.50;99.90
33803;DHT22;20110;53.120;5.786;2023-12-07T04:26:20;4.20;99.90
33803;DHT22;20110;53.120;5.786;2023-12-07T04:28:46;4.30;99.90
33803;DHT22;20110;53.120;5.786;2023-12-07T04:31:12;4.30;99.90
33803;DHT22;20110;53.120;5.786;2023-12-07T04:33:37;4.40;99.90
33803;DHT22;20110;53.120;5.786;2023-12-07T04:36:03;4.20;99.90
33803;DHT22;20110;53.120;5.786;2023-12-07T04:38:29;4.00;99.90
33803;DHT22;20110;53.120;5.786;2023-12-07T04:40:55;4.10;99.90
33803;DHT22;20110;53.120;5.786;2023-12-07T04:43:21;4.20;99.90
33803;DHT22;20110;53.120;5.786;2023-12-07T04:45:47;4.20;99.90
33803;DHT22;20110;53.120;5.786;2023-12-07T04:48:12;4.10;99.90
33803;DHT22;20110;53.120;5.786;2023-12-07T04:50:38;4.00;99.90
33803;DHT22;20110;53.120;5.786;2023-12-07T04:53:04;4.00;99.90
33803;DHT22;20110;53.120;5.786;2023-12-07T04:55:30;4.20;99.90
33803;DHT22;20110;53.120;5.786;2023-12-07T04:57:55;4.40;99.90
33803;DHT22;20110;53.120;5.786;2023-12-07T05:00:21;4.50;99.90
33803;DHT22;20110;53.120;5.786;2023-12-07T05:02:47;4.30;99.90
33803;DHT22;20110;53.120;5.786;2023-12-07T05:05:13;3.60;99.90
33803;DHT22;20110;53.120;5.786;2023-12-07T05:07:39;3.60;99.90
33803;DHT22;20110;53.120;5.786;2023-12-07T05:10:06;3.70;99.90
33803;DHT22;20110;53.120;5.786;2023-12-07T05:12:31;3.50;99.90
33803;DHT22;20110;53.120;5.786;2023-12-07T05:14:58;3.70;99.90
33803;DHT22;20110;53.120;5.786;2023-12-07T05:17:23;3.80;99.90
33803;DHT22;20110;53.120;5.786;2023-12-07T05:19:49;3.90;99.90
33803;DHT22;20110;53.120;5.786;2023-12-07T05:22:15;3.90;99.90
33803;DHT22;20110;53.120;5.786;2023-12-07T05:24:40;4.00;99.90
33803;DHT22;20110;53.120;5.786;2023-12-07T05:27:06;3.90;99.90
33803;DHT22;20110;53.120;5.786;2023-12-07T05:29:32;4.10;99.90
33803;DHT22;20110;53.120;5.786;2023-12-07T05:31:57;4.30;99.90
33803;DHT22;20110;53.120;5.786;2023-12-07T05:34:23;4.40;99.90
33803;DHT22;20110;53.120;5.786;2023-12-07T05:36:49;4.50;99.90
33803;DHT22;20110;53.120;5.786;2023-12-07T05:39:14;4.60;99.90
33803;DHT22;20110;53.120;5.786;2023-12-07T05:41:42;4.40;99.90
33803;DHT22;20110;53.120;5.786;2023-12-07T05:44:08;4.40;99.90
33803;DHT22;20110;53.120;5.786;2023-12-07T05:46:37;4.40;99.90
33803;DHT22;20110;53.120;5.786;2023-12-07T05:49:05;4.30;99.90
33803;DHT22;20110;53.120;5.786;2023-12-07T05:51:31;4.30;99.90
33803;DHT22;20110;53.120;5.786;2023-12-07T05:53:57;4.30;99.90
33803;DHT22;20110;53.120;5.786;2023-12-07T05:56:22;4.40;99.90
33803;DHT22;20110;53.120;5.786;2023-12-07T05:58:48;4.20;99.90
33803;DHT22;20110;53.120;5.786;2023-12-07T06:01:16;4.60;99.90
33803;DHT22;20110;53.120;5.786;2023-12-07T06:03:43;4.50;99.90
33803;DHT22;20110;53.120;5.786;2023-12-07T06:06:09;4.60;99.90
33803;DHT22;20110;53.120;5.786;2023-12-07T06:08:39;4.70;99.90
33803;DHT22;20110;53.120;5.786;2023-12-07T06:11:04;4.70;99.90
33803;DHT22;20110;53.120;5.786;2023-12-07T06:13:30;4.70;99.90
33803;DHT22;20110;53.120;5.786;2023-12-07T06:15:59;4.70;99.90
33803;DHT22;20110;53.120;5.786;2023-12-07T06:18:26;4.70;99.90
33803;DHT22;20110;53.120;5.786;2023-12-07T06:20:52;4.70;99.90
33803;DHT22;20110;53.120;5.786;2023-12-07T06:23:18;4.80;99.90
33803;DHT22;20110;53.120;5.786;2023-12-07T06:25:44;4.70;99.90
33803;DHT22;20110;53.120;5.786;2023-12-07T06:28:10;4.70;99.90
33803;DHT22;20110;53.120;5.786;2023-12-07T06:30:36;4.60;99.90
33803;DHT22;20110;53.120;5.786;2023-12-07T06:33:02;4.60;99.90
33803;DHT22;20110;53.120;5.786;2023-12-07T06:35:27;4.70;99.90
33803;DHT22;20110;53.120;5.786;2023-12-07T06:37:53;4.80;99.90
33803;DHT22;20110;53.120;5.786;2023-12-07T06:40:19;4.80;99.90
33803;DHT22;20110;53.120;5.786;2023-12-07T06:42:45;4.80;99.90
33803;DHT22;20110;53.120;5.786;2023-12-07T06:45:12;4.80;99.90
33803;DHT22;20110;53.120;5.786;2023-12-07T06:47:39;4.80;99.90
33803;DHT22;20110;53.120;5.786;2023-12-07T06:50:08;4.90;99.90
33803;DHT22;20110;53.120;5.786;2023-12-07T06:52:38;4.80;99.90
33803;DHT22;20110;53.120;5.786;2023-12-07T06:55:05;4.80;99.90
33803;DHT22;20110;53.120;5.786;2023-12-07T06:57:31;4.80;99.90
33803;DHT22;20110;53.120;5.786;2023-12-07T06:59:57;4.90;99.90
33803;DHT22;20110;53.120;5.786;2023-12-07T07:02:23;4.90;99.90
33803;DHT22;20110;53.120;5.786;2023-12-07T07:04:49;4.90;99.90
33803;DHT22;20110;53.120;5.786;2023-12-07T07:07:15;4.90;99.90
33803;DHT22;20110;53.120;5.786;2023-12-07T07:09:41;4.70;99.90
33803;DHT22;20110;53.120;5.786;2023-12-07T07:12:07;4.70;99.90
33803;DHT22;20110;53.120;5.786;2023-12-07T07:14:33;4.60;99.90
33803;DHT22;20110;53.120;5.786;2023-12-07T07:16:59;4.70;99.90
33803;DHT22;20110;53.120;5.786;2023-12-07T07:19:25;4.70;99.90
33803;DHT22;20110;53.120;5.786;2023-12-07T07:21:51;4.60;99.90
33803;DHT22;20110;53.120;5.786;2023-12-07T07:24:17;4.40;99.90
33803;DHT22;20110;53.120;5.786;2023-12-07T07:26:42;4.40;99.90
33803;DHT22;20110;53.120;5.786;2023-12-07T07:29:08;4.30;99.90
33803;DHT22;20110;53.120;5.786;2023-12-07T07:31:34;4.20;99.90
33803;DHT22;20110;53.120;5.786;2023-12-07T07:34:00;4.20;99.90
33803;DHT22;20110;53.120;5.786;2023-12-07T07:36:26;4.20;99.90
33803;DHT22;20110;53.120;5.786;2023-12-07T07:38:52;4.30;99.90
33803;DHT22;20110;53.120;5.786;2023-12-07T07:41:17;4.30;99.90
33803;DHT22;20110;53.120;5.786;2023-12-07T07:43:43;4.30;99.90
33803;DHT22;20110;53.120;5.786;2023-12-07T07:46:09;4.40;99.90
33803;DHT22;20110;53.120;5.786;2023-12-07T07:48:34;4.40;99.90
33803;DHT22;20110;53.120;5.786;2023-12-07T07:51:00;4.40;99.90
33803;DHT22;20110;53.120;5.786;2023-12-07T07:53:26;4.30;99.90
33803;DHT22;20110;53.120;5.786;2023-12-07T07:55:51;4.20;99.90
33803;DHT22;20110;53.120;5.786;2023-12-07T07:58:17;4.10;99.90
33803;DHT22;20110;53.120;5.786;2023-12-07T08:00:43;4.10;99.90
33803;DHT22;20110;53.120;5.786;2023-12-07T08:03:12;4.20;99.90
33803;DHT22;20110;53.120;5.786;2023-12-07T08:05:37;4.10;99.90
33803;DHT22;20110;53.120;5.786;2023-12-07T08:08:03;4.20;99.90
33803;DHT22;20110;53.120;5.786;2023-12-07T08:10:29;4.00;99.90
33803;DHT22;20110;53.120;5.786;2023-12-07T08:12:55;3.90;99.90
33803;DHT22;20110;53.120;5.786;2023-12-07T08:15:20;3.80;99.90
33803;DHT22;20110;53.120;5.786;2023-12-07T08:17:47;3.70;99.90
33803;DHT22;20110;53.120;5.786;2023-12-07T08:20:13;3.60;99.90
33803;DHT22;20110;53.120;5.786;2023-12-07T08:22:40;3.50;99.90
33803;DHT22;20110;53.120;5.786;2023-12-07T08:25:09;3.60;99.90
33803;DHT22;20110;53.120;5.786;2023-12-07T08:27:39;3.50;99.90
33803;DHT22;20110;53.120;5.786;2023-12-07T08:30:05;3.40;99.90
33803;DHT22;20110;53.120;5.786;2023-12-07T08:32:34;3.40;99.90
33803;DHT22;20110;53.120;5.786;2023-12-07T08:35:01;3.40;99.90
33803;DHT22;20110;53.120;5.786;2023-12-07T08:37:26;3.50;99.90
33803;DHT22;20110;53.120;5.786;2023-12-07T08:39:52;3.50;99.90
33803;DHT22;20110;53.120;5.786;2023-12-07T08:42:18;3.60;99.90
33803;DHT22;20110;53.120;5.786;2023-12-07T08:44:44;3.70;99.90
33803;DHT22;20110;53.120;5.786;2023-12-07T08:47:10;3.80;99.90
33803;DHT22;20110;53.120;5.786;2023-12-07T08:49:35;3.80;99.90
33803;DHT22;20110;53.120;5.786;2023-12-07T08:52:01;3.90;99.90
33803;DHT22;20110;53.120;5.786;2023-12-07T08:54:27;4.00;99.90
33803;DHT22;20110;53.120;5.786;2023-12-07T08:56:53;4.20;99.90
33803;DHT22;20110;53.120;5.786;2023-12-07T08:59:19;4.40;99.90
33803;DHT22;20110;53.120;5.786;2023-12-07T09:01:44;4.50;99.90
33803;DHT22;20110;53.120;5.786;2023-12-07T09:04:10;4.60;99.90
33803;DHT22;20110;53.120;5.786;2023-12-07T09:06:37;4.70;99.90
33803;DHT22;20110;53.120;5.786;2023-12-07T09:09:06;4.80;99.90
33803;DHT22;20110;53.120;5.786;2023-12-07T09:11:31;4.90;99.90
33803;DHT22;20110;53.120;5.786;2023-12-07T09:13:57;5.00;99.90
33803;DHT22;20110;53.120;5.786;2023-12-07T09:16:23;5.20;99.90
33803;DHT22;20110;53.120;5.786;2023-12-07T09:18:51;5.20;99.90
33803;DHT22;20110;53.120;5.786;2023-12-07T09:21:17;5.20;99.90
33803;DHT22;20110;53.120;5.786;2023-12-07T09:23:44;5.40;99.90
33803;DHT22;20110;53.120;5.786;2023-12-07T09:26:10;5.40;99.90
33803;DHT22;20110;53.120;5.786;2023-12-07T09:28:36;5.50;99.90
33803;DHT22;20110;53.120;5.786;2023-12-07T09:31:01;5.60;99.90
33803;DHT22;20110;53.120;5.786;2023-12-07T09:33:27;5.60;99.90
33803;DHT22;20110;53.120;5.786;2023-12-07T09:35:53;5.70;99.90
33803;DHT22;20110;53.120;5.786;2023-12-07T09:38:18;5.80;99.90
33803;DHT22;20110;53.120;5.786;2023-12-07T09:40:45;5.80;99.90
33803;DHT22;20110;53.120;5.786;2023-12-07T09:43:11;5.80;99.90
33803;DHT22;20110;53.120;5.786;2023-12-07T09:45:37;5.80;99.90
33803;DHT22;20110;53.120;5.786;2023-12-07T09:48:03;5.90;99.90
33803;DHT22;20110;53.120;5.786;2023-12-07T09:50:30;5.80;99.90
33803;DHT22;20110;53.120;5.786;2023-12-07T09:52:57;6.10;99.90
33803;DHT22;20110;53.120;5.786;2023-12-07T09:55:23;6.00;99.90
33803;DHT22;20110;53.120;5.786;2023-12-07T09:57:50;6.00;99.90
33803;DHT22;20110;53.120;5.786;2023-12-07T10:00:16;6.10;99.90
33803;DHT22;20110;53.120;5.786;2023-12-07T10:02:44;6.00;99.90
33803;DHT22;20110;53.120;5.786;2023-12-07T10:05:11;5.90;99.90
33803;DHT22;20110;53.120;5.786;2023-12-07T10:07:42;6.00;99.90
33803;DHT22;20110;53.120;5.786;2023-12-07T10:10:09;6.00;99.90
33803;DHT22;20110;53.120;5.786;2023-12-07T10:12:44;5.90;99.90
33803;DHT22;20110;53.120;5.786;2023-12-07T10:15:12;6.00;99.90
33803;DHT22;20110;53.120;5.786;2023-12-07T10:17:49;6.10;99.90
33803;DHT22;20110;53.120;5.786;2023-12-07T10:20:16;6.10;99.90
33803;DHT22;20110;53.120;5.786;2023-12-07T10:22:43;6.20;99.90
33803;DHT22;20110;53.120;5.786;2023-12-07T10:25:10;6.30;99.90
33803;DHT22;20110;53.120;5.786;2023-12-07T10:27:37;6.40;99.90
33803;DHT22;20110;53.120;5.786;2023-12-07T10:30:06;6.40;99.90
33803;DHT22;20110;53.120;5.786;2023-12-07T10:32:37;6.50;99.90
33803;DHT22;20110;53.120;5.786;2023-12-07T10:35:07;6.60;99.90
33803;DHT22;20110;53.120;5.786;2023-12-07T10:37:33;6.70;99.90
33803;DHT22;20110;53.120;5.786;2023-12-07T10:39:59;6.80;99.90
33803;DHT22;20110;53.120;5.786;2023-12-07T10:42:25;6.80;99.90
33803;DHT22;20110;53.120;5.786;2023-12-07T10:44:53;6.90;99.90
33803;DHT22;20110;53.120;5.786;2023-12-07T10:47:23;6.90;99.90
33803;DHT22;20110;53.120;5.786;2023-12-07T10:49:51;6.90;99.90
33803;DHT22;20110;53.120;5.786;2023-12-07T10:52:20;6.90;99.90
33803;DHT22;20110;53.120;5.786;2023-12-07T10:55:02;7.00;99.90
33803;DHT22;20110;53.120;5.786;2023-12-07T10:57:30;7.30;99.90
33803;DHT22;20110;53.120;5.786;2023-12-07T10:59:59;7.40;99.90
33803;DHT22;20110;53.120;5.786;2023-12-07T11:02:26;7.20;99.90
33803;DHT22;20110;53.120;5.786;2023-12-07T11:04:55;7.10;99.90
33803;DHT22;20110;53.120;5.786;2023-12-07T11:07:22;7.40;99.90
33803;DHT22;20110;53.120;5.786;2023-12-07T11:10:34;7.30;99.90
33803;DHT22;20110;53.120;5.786;2023-12-07T11:15:38;7.20;99.90
33803;DHT22;20110;53.120;5.786;2023-12-07T11:18:05;7.30;99.90
33803;DHT22;20110;53.120;5.786;2023-12-07T11:20:32;7.30;99.90
33803;DHT22;20110;53.120;5.786;2023-12-07T11:23:17;7.30;99.90
33803;DHT22;20110;53.120;5.786;2023-12-07T11:25:47;7.50;99.90
33803;DHT22;20110;53.120;5.786;2023-12-07T11:28:15;7.50;99.90
33803;DHT22;20110;53.120;5.786;2023-12-07T11:30:45;7.60;99.90
33803;DHT22;20110;53.120;5.786;2023-12-07T11:33:11;7.60;99.90
33803;DHT22;20110;53.120;5.786;2023-12-07T11:38:25;7.80;99.90
33803;DHT22;20110;53.120;5.786;2023-12-07T11:40:51;7.80;99.90
33803;DHT22;20110;53.120;5.786;2023-12-07T11:43:17;7.60;99.90
33803;DHT22;20110;53.120;5.786;2023-12-07T11:45:47;7.50;99.90
33803;DHT22;20110;53.120;5.786;2023-12-07T11:48:18;7.50;99.90
33803;DHT22;20110;53.120;5.786;2023-12-07T11:53:30;6.30;99.90
33803;DHT22;20110;53.120;5.786;2023-12-07T11:55:57;5.70;99.90
33803;DHT22;20110;53.120;5.786;2023-12-07T11:58:25;5.50;99.90
33803;DHT22;20110;53.120;5.786;2023-12-07T12:00:52;5.30;99.90
33803;DHT22;20110;53.120;5.786;2023-12-07T12:03:22;5.30;99.90
33803;DHT22;20110;53.120;5.786;2023-12-07T12:05:48;5.10;99.90
33803;DHT22;20110;53.120;5.786;2023-12-07T12:08:14;5.30;99.90
33803;DHT22;20110;53.120;5.786;2023-12-07T12:10:40;5.20;99.90
33803;DHT22;20110;53.120;5.786;2023-12-07T12:13:08;5.00;99.90
33803;DHT22;20110;53.120;5.786;2023-12-07T12:15:34;4.60;99.90
33803;DHT22;20110;53.120;5.786;2023-12-07T12:18:00;5.00;99.90
33803;DHT22;20110;53.120;5.786;2023-12-07T12:20:26;5.00;99.90
33803;DHT22;20110;53.120;5.786;2023-12-07T12:22:53;5.10;99.90
33803;DHT22;20110;53.120;5.786;2023-12-07T12:25:23;5.20;99.90
33803;DHT22;20110;53.120;5.786;2023-12-07T12:27:54;5.00;99.90
33803;DHT22;20110;53.120;5.786;2023-12-07T12:30:21;4.90;99.90
33803;DHT22;20110;53.120;5.786;2023-12-07T12:32:50;4.70;99.90
33803;DHT22;20110;53.120;5.786;2023-12-07T12:35:19;4.70;99.90
33803;DHT22;20110;53.120;5.786;2023-12-07T12:37:45;4.80;99.90
33803;DHT22;20110;53.120;5.786;2023-12-07T12:40:12;4.80;99.90
33803;DHT22;20110;53.120;5.786;2023-12-07T12:42:47;4.80;99.90
33803;DHT22;20110;53.120;5.786;2023-12-07T12:45:14;4.80;99.90
33803;DHT22;20110;53.120;5.786;2023-12-07T12:47:41;4.80;99.90
33803;DHT22;20110;53.120;5.786;2023-12-07T12:50:09;4.90;99.90
33803;DHT22;20110;53.120;5.786;2023-12-07T12:52:35;4.90;99.90
33803;DHT22;20110;53.120;5.786;2023-12-07T12:55:01;4.90;99.90
33803;DHT22;20110;53.120;5.786;2023-12-07T12:57:28;4.80;99.90
33803;DHT22;20110;53.120;5.786;2023-12-07T12:59:54;5.00;99.90
33803;DHT22;20110;53.120;5.786;2023-12-07T13:02:19;4.90;99.90
33803;DHT22;20110;53.120;5.786;2023-12-07T13:04:45;4.90;99.90
33803;DHT22;20110;53.120;5.786;2023-12-07T13:07:12;5.10;99.90
33803;DHT22;20110;53.120;5.786;2023-12-07T13:09:39;5.00;99.90
33803;DHT22;20110;53.120;5.786;2023-12-07T13:12:05;5.00;99.90
33803;DHT22;20110;53.120;5.786;2023-12-07T13:14:33;4.90;99.90
33803;DHT22;20110;53.120;5.786;2023-12-07T13:17:01;4.90;99.90
33803;DHT22;20110;53.120;5.786;2023-12-07T13:19:28;4.80;99.90
33803;DHT22;20110;53.120;5.786;2023-12-07T13:21:53;4.80;99.90
33803;DHT22;20110;53.120;5.786;2023-12-07T13:24:19;4.80;99.90
33803;DHT22;20110;53.120;5.786;2023-12-07T13:26:45;4.70;99.90
33803;DHT22;20110;53.120;5.786;2023-12-07T13:29:10;4.70;99.90
33803;DHT22;20110;53.120;5.786;2023-12-07T13:31:37;4.80;99.90
33803;DHT22;20110;53.120;5.786;2023-12-07T13:34:02;4.70;99.90
33803;DHT22;20110;53.120;5.786;2023-12-07T13:36:28;4.70;99.90
33803;DHT22;20110;53.120;5.786;2023-12-07T13:38:55;4.70;99.90
33803;DHT22;20110;53.120;5.786;2023-12-07T13:41:21;5.20;99.90
33803;DHT22;20110;53.120;5.786;2023-12-07T13:43:47;4.70;99.90
33803;DHT22;20110;53.120;5.786;2023-12-07T13:46:16;4.80;99.90
33803;DHT22;20110;53.120;5.786;2023-12-07T13:48:42;4.80;99.90
33803;DHT22;20110;53.120;5.786;2023-12-07T13:51:08;4.90;99.90
33803;DHT22;20110;53.120;5.786;2023-12-07T13:53:35;4.90;99.90
33803;DHT22;20110;53.120;5.786;2023-12-07T13:56:01;4.80;99.90
33803;DHT22;20110;53.120;5.786;2023-12-07T13:58:29;4.60;99.90
33803;DHT22;20110;53.120;5.786;2023-12-07T14:00:56;4.60;99.90
33803;DHT22;20110;53.120;5.786;2023-12-07T14:03:21;4.60;99.90
33803;DHT22;20110;53.120;5.786;2023-12-07T14:05:48;4.70;99.90
33803;DHT22;20110;53.120;5.786;2023-12-07T14:08:14;4.70;99.90
33803;DHT22;20110;53.120;5.786;2023-12-07T14:10:40;4.80;99.90
33803;DHT22;20110;53.120;5.786;2023-12-07T14:13:06;4.70;99.90
33803;DHT22;20110;53.120;5.786;2023-12-07T14:15:32;4.70;99.90
33803;DHT22;20110;53.120;5.786;2023-12-07T14:18:00;4.70;99.90
33803;DHT22;20110;53.120;5.786;2023-12-07T14:20:26;4.70;99.90
33803;DHT22;20110;53.120;5.786;2023-12-07T14:22:53;4.70;99.90
33803;DHT22;20110;53.120;5.786;2023-12-07T14:25:20;4.80;99.90
33803;DHT22;20110;53.120;5.786;2023-12-07T14:27:45;4.90;99.90
33803;DHT22;20110;53.120;5.786;2023-12-07T14:30:11;5.00;99.90
33803;DHT22;20110;53.120;5.786;2023-12-07T14:32:37;4.90;99.90
33803;DHT22;20110;53.120;5.786;2023-12-07T14:35:03;4.90;99.90
33803;DHT22;20110;53.120;5.786;2023-12-07T14:37:29;4.80;99.90
33803;DHT22;20110;53.120;5.786;2023-12-07T14:39:55;4.90;99.90
33803;DHT22;20110;53.120;5.786;2023-12-07T14:42:21;4.90;99.90
33803;DHT22;20110;53.120;5.786;2023-12-07T14:44:47;4.80;99.90
33803;DHT22;20110;53.120;5.786;2023-12-07T14:47:14;4.80;99.90
33803;DHT22;20110;53.120;5.786;2023-12-07T14:49:40;4.80;99.90
33803;DHT22;20110;53.120;5.786;2023-12-07T14:52:07;4.90;99.90
33803;DHT22;20110;53.120;5.786;2023-12-07T14:54:32;4.90;99.90
33803;DHT22;20110;53.120;5.786;2023-12-07T14:57:01;4.80;99.90
33803;DHT22;20110;53.120;5.786;2023-12-07T14:59:29;4.90;99.90
33803;DHT22;20110;53.120;5.786;2023-12-07T15:01:55;5.00;99.90
33803;DHT22;20110;53.120;5.786;2023-12-07T15:04:21;5.00;99.90
33803;DHT22;20110;53.120;5.786;2023-12-07T15:06:46;5.20;99.90
33803;DHT22;20110;53.120;5.786;2023-12-07T15:09:12;6.60;99.90
33803;DHT22;20110;53.120;5.786;2023-12-07T15:11:38;5.10;99.90
33803;DHT22;20110;53.120;5.786;2023-12-07T15:14:05;5.00;99.90
33803;DHT22;20110;53.120;5.786;2023-12-07T15:16:31;4.60;99.90
33803;DHT22;20110;53.120;5.786;2023-12-07T15:18:57;4.90;99.90
33803;DHT22;20110;53.120;5.786;2023-12-07T15:21:23;4.80;99.90
33803;DHT22;20110;53.120;5.786;2023-12-07T15:23:50;4.80;99.90
33803;DHT22;20110;53.120;5.786;2023-12-07T15:26:16;4.90;99.90
33803;DHT22;20110;53.120;5.786;2023-12-07T15:28:42;4.90;99.90
33803;DHT22;20110;53.120;5.786;2023-12-07T15:31:08;5.00;99.90
33803;DHT22;20110;53.120;5.786;2023-12-07T15:33:34;5.00;99.90
33803;DHT22;20110;53.120;5.786;2023-12-07T15:36:00;5.00;99.90
33803;DHT22;20110;53.120;5.786;2023-12-07T15:38:28;4.90;99.90
33803;DHT22;20110;53.120;5.786;2023-12-07T15:40:54;4.90;99.90
33803;DHT22;20110;53.120;5.786;2023-12-07T15:43:22;5.20;99.90
33803;DHT22;20110;53.120;5.786;2023-12-07T15:45:48;5.40;99.90
33803;DHT22;20110;53.120;5.786;2023-12-07T15:48:15;5.50;99.90
33803;DHT22;20110;53.120;5.786;2023-12-07T15:50:40;5.30;99.90
33803;DHT22;20110;53.120;5.786;2023-12-07T15:53:06;4.80;99.90